Time;durP1;ratioP1;P1;durP2;ratioP2;P2;SDS_P1;SDS_P2;PMS_P1;PMS_P2;Temp;Humidity;BMP_temperature;BMP_pressure;BME280_temperature;BME280_humidity;BME280_pressure;Samples;Min_cycle;Max_cycle;Signal;HPM_P1;HPM_P2
2023/09/29 00:01:44;;;;;;;13.05;7.10;;;16.40;99.90;;;;;;5022959;28;20053;-79
2023/09/29 00:04:12;;;;;;;13.40;7.60;;;16.30;99.90;;;;;;5004353;28;20049;-79
2023/09/29 00:06:39;;;;;;;11.60;7.25;;;16.30;99.90;;;;;;5002902;28;20603;-79
2023/09/29 00:09:12;;;;;;;12.00;7.43;;;16.30;99.90;;;;;;5026052;28;20069;-79
2023/09/29 00:11:39;;;;;;;18.30;7.63;;;16.30;99.90;;;;;;5014599;28;20041;-79
2023/09/29 00:14:06;;;;;;;14.15;7.13;;;16.30;99.90;;;;;;5003527;28;20084;-79
2023/09/29 00:16:33;;;;;;;12.90;7.07;;;16.30;99.90;;;;;;5019564;28;20057;-79
2023/09/29 00:19:01;;;;;;;12.65;7.70;;;16.20;99.90;;;;;;5023639;28;22351;-79
2023/09/29 00:21:29;;;;;;;11.65;6.82;;;16.20;99.90;;;;;;5016986;28;20053;-78
2023/09/29 00:23:57;;;;;;;12.18;6.82;;;16.20;99.90;;;;;;5026527;28;22443;-79
2023/09/29 00:26:24;;;;;;;11.90;7.47;;;16.10;99.90;;;;;;5026087;28;20054;-79
2023/09/29 00:28:51;;;;;;;10.23;6.70;;;16.10;99.90;;;;;;5021091;28;20076;-79
2023/09/29 00:31:19;;;;;;;15.30;7.20;;;16.10;99.90;;;;;;5016402;28;20077;-79
2023/09/29 00:33:46;;;;;;;13.00;7.00;;;16.10;99.90;;;;;;5022553;28;20045;-79
2023/09/29 00:36:13;;;;;;;13.25;7.80;;;16.10;99.90;;;;;;5019056;28;20053;-79
2023/09/29 00:38:40;;;;;;;13.98;7.35;;;16.10;99.90;;;;;;4998484;28;20049;-79
2023/09/29 00:41:08;;;;;;;13.20;6.70;;;16.10;99.90;;;;;;5007788;28;20093;-79
2023/09/29 00:43:36;;;;;;;12.65;7.20;;;16.10;99.90;;;;;;5022803;28;20496;-79
2023/09/29 00:46:06;;;;;;;13.05;7.25;;;16.10;99.90;;;;;;5024584;28;20063;-79
2023/09/29 00:48:35;;;;;;;14.48;7.25;;;16.00;99.90;;;;;;5011862;28;20053;-78
2023/09/29 00:51:02;;;;;;;16.27;7.30;;;16.00;99.90;;;;;;5003070;28;20053;-79
2023/09/29 00:53:30;;;;;;;13.02;7.47;;;16.00;99.90;;;;;;5006756;28;20056;-79
2023/09/29 00:55:58;;;;;;;12.70;6.70;;;15.90;99.90;;;;;;5008450;28;20133;-78
2023/09/29 00:58:25;;;;;;;13.68;7.05;;;15.90;99.90;;;;;;5007071;28;20062;-79
2023/09/29 01:00:53;;;;;;;17.13;7.53;;;15.90;99.90;;;;;;5008590;28;20064;-79
2023/09/29 01:03:20;;;;;;;12.00;7.05;;;15.90;99.90;;;;;;5004978;28;20581;-79
2023/09/29 01:05:51;;;;;;;13.93;8.07;;;15.90;99.90;;;;;;5024741;28;20107;-78
2023/09/29 01:08:21;;;;;;;11.43;7.00;;;15.90;99.90;;;;;;5012097;28;20077;-78
2023/09/29 01:10:50;;;;;;;11.57;7.32;;;15.90;99.90;;;;;;5016381;28;20140;-78
2023/09/29 01:13:17;;;;;;;13.63;7.95;;;15.80;99.90;;;;;;5027030;28;22533;-78
2023/09/29 01:15:45;;;;;;;14.00;8.05;;;15.80;99.90;;;;;;5008733;28;20056;-79
2023/09/29 01:18:14;;;;;;;13.82;7.10;;;15.80;99.90;;;;;;5022849;28;20144;-79
2023/09/29 01:20:43;;;;;;;12.20;7.35;;;15.80;99.90;;;;;;5023248;28;20061;-79
2023/09/29 01:23:11;;;;;;;13.80;7.70;;;15.80;99.90;;;;;;5000834;28;22428;-78
2023/09/29 01:25:40;;;;;;;15.35;8.10;;;15.80;99.90;;;;;;5001875;28;20126;-79
2023/09/29 01:28:08;;;;;;;12.68;6.85;;;15.80;99.90;;;;;;5003331;28;20042;-79
2023/09/29 01:30:40;;;;;;;11.70;6.88;;;15.80;99.90;;;;;;5000952;28;20046;-79
2023/09/29 01:33:08;;;;;;;12.10;7.00;;;15.90;99.90;;;;;;5006534;28;20052;-79
2023/09/29 01:35:35;;;;;;;10.18;6.35;;;15.80;99.90;;;;;;5019828;28;20084;-79
2023/09/29 01:38:02;;;;;;;12.57;6.75;;;15.90;99.90;;;;;;5015557;28;20045;-81
2023/09/29 01:40:29;;;;;;;12.50;7.00;;;15.90;99.90;;;;;;5012805;28;20122;-81
2023/09/29 01:42:57;;;;;;;12.70;7.32;;;15.90;99.90;;;;;;5025408;28;20049;-80
2023/09/29 01:45:26;;;;;;;12.20;6.82;;;15.90;99.90;;;;;;5006659;28;20053;-80
2023/09/29 01:47:54;;;;;;;10.98;6.78;;;15.80;99.90;;;;;;5025583;28;20053;-80
2023/09/29 01:50:22;;;;;;;14.82;6.75;;;15.80;99.90;;;;;;5024313;28;20560;-80
2023/09/29 01:52:50;;;;;;;10.63;6.57;;;15.80;99.90;;;;;;5007453;28;20168;-80
2023/09/29 01:55:19;;;;;;;12.98;6.88;;;15.70;99.90;;;;;;5010133;28;20940;-81
2023/09/29 01:57:48;;;;;;;12.63;6.60;;;15.80;99.90;;;;;;5025198;28;20048;-80
2023/09/29 02:00:23;;;;;;;12.02;6.75;;;15.70;99.90;;;;;;5005857;28;20828;-81
2023/09/29 02:02:53;;;;;;;13.90;7.43;;;15.70;99.90;;;;;;5018929;28;20065;-81
2023/09/29 02:05:20;;;;;;;10.75;6.88;;;15.60;99.90;;;;;;5011637;28;20053;-81
2023/09/29 02:07:49;;;;;;;11.85;6.95;;;15.60;99.90;;;;;;4995017;28;20056;-81
2023/09/29 02:10:20;;;;;;;10.27;6.18;;;15.60;99.90;;;;;;5022585;28;20042;-81
2023/09/29 02:12:56;;;;;;;9.43;5.97;;;15.50;99.90;;;;;;4999595;28;20038;-81
2023/09/29 02:15:25;;;;;;;12.52;7.07;;;15.50;99.90;;;;;;5025935;28;20377;-81
2023/09/29 02:17:52;;;;;;;11.27;6.38;;;15.50;99.90;;;;;;5020175;28;20041;-81
2023/09/29 02:20:28;;;;;;;14.35;7.60;;;15.50;99.90;;;;;;5025497;28;20519;-80
2023/09/29 02:23:01;;;;;;;11.77;6.43;;;15.50;99.90;;;;;;5020007;28;20070;-81
2023/09/29 02:25:29;;;;;;;13.45;7.60;;;15.40;99.90;;;;;;4997988;28;20049;-81
2023/09/29 02:27:58;;;;;;;14.60;6.97;;;15.40;99.90;;;;;;5007491;28;20526;-81
2023/09/29 02:30:27;;;;;;;11.25;6.68;;;15.40;99.90;;;;;;5038291;28;20512;-81
2023/09/29 02:32:54;;;;;;;12.38;6.90;;;15.40;99.90;;;;;;5014138;28;20051;-81
2023/09/29 02:35:22;;;;;;;12.27;6.82;;;15.30;99.90;;;;;;5021931;28;20056;-80
2023/09/29 02:37:49;;;;;;;15.70;6.75;;;15.30;99.90;;;;;;5017743;28;20049;-81
2023/09/29 02:40:16;;;;;;;11.00;6.93;;;15.30;99.90;;;;;;5008565;28;20524;-81
2023/09/29 02:42:47;;;;;;;13.15;6.65;;;15.40;99.90;;;;;;5036235;28;20060;-81
2023/09/29 02:45:14;;;;;;;14.18;6.68;;;15.30;99.90;;;;;;4998397;28;20060;-81
2023/09/29 02:47:42;;;;;;;11.10;6.70;;;15.30;99.90;;;;;;5013475;28;20065;-81
2023/09/29 02:50:11;;;;;;;12.23;6.38;;;15.20;99.90;;;;;;5023739;28;20057;-81
2023/09/29 02:52:40;;;;;;;12.15;7.20;;;15.20;99.90;;;;;;5009807;28;20173;-81
2023/09/29 02:55:12;;;;;;;14.05;6.80;;;15.20;99.90;;;;;;5024702;28;22179;-81
2023/09/29 02:57:41;;;;;;;10.57;6.50;;;15.20;99.90;;;;;;5025255;28;20049;-80
2023/09/29 03:00:18;;;;;;;11.63;6.57;;;15.20;99.90;;;;;;5023747;28;20076;-81
2023/09/29 03:02:45;;;;;;;13.20;6.95;;;15.20;99.90;;;;;;5002854;28;21142;-80
2023/09/29 03:05:14;;;;;;;11.98;7.25;;;15.10;99.90;;;;;;5015944;28;20053;-80
2023/09/29 03:07:43;;;;;;;14.02;7.40;;;15.10;99.90;;;;;;5012935;28;20045;-80
2023/09/29 03:10:15;;;;;;;12.25;6.97;;;15.10;99.90;;;;;;5015888;28;20056;-80
2023/09/29 03:12:43;;;;;;;;;;;15.00;99.90;;;;;;5043554;28;22398;-81
2023/09/29 03:15:13;;;;;;;11.82;6.35;;;15.00;99.90;;;;;;5010582;28;20360;-81
2023/09/29 03:17:41;;;;;;;15.48;7.13;;;15.00;99.90;;;;;;5009615;28;20501;-80
2023/09/29 03:20:10;;;;;;;11.98;7.03;;;15.00;99.90;;;;;;5007186;28;20059;-80
2023/09/29 03:22:44;;;;;;;12.18;6.82;;;15.00;99.90;;;;;;5003616;28;20057;-80
2023/09/29 03:25:19;;;;;;;10.57;6.30;;;15.00;99.90;;;;;;5017943;28;20064;-81
2023/09/29 03:27:48;;;;;;;13.02;7.30;;;15.00;99.90;;;;;;5026284;28;20045;-80
2023/09/29 03:30:15;;;;;;;11.50;6.55;;;15.00;99.90;;;;;;5015955;28;20069;-81
2023/09/29 03:32:43;;;;;;;13.57;6.45;;;14.90;99.90;;;;;;5010315;28;20049;-80
2023/09/29 03:35:13;;;;;;;14.55;7.15;;;14.90;99.90;;;;;;5026400;28;20775;-81
2023/09/29 03:37:43;;;;;;;9.30;6.40;;;14.90;99.90;;;;;;5014575;28;20080;-81
2023/09/29 03:40:13;;;;;;;12.00;6.93;;;14.90;99.90;;;;;;5008807;28;20057;-81
2023/09/29 03:42:41;;;;;;;10.23;6.53;;;14.90;99.90;;;;;;5024301;28;20534;-81
2023/09/29 03:45:11;;;;;;;11.40;6.75;;;14.80;99.90;;;;;;5016799;28;20045;-81
2023/09/29 03:47:39;;;;;;;10.50;6.93;;;14.80;99.90;;;;;;5002741;28;20053;-80
2023/09/29 03:50:11;;;;;;;13.35;7.05;;;14.80;99.90;;;;;;5011322;28;20058;-80
2023/09/29 03:52:42;;;;;;;13.60;7.68;;;14.80;99.90;;;;;;5024444;28;20045;-81
2023/09/29 03:55:12;;;;;;;14.05;7.47;;;14.80;99.90;;;;;;5018149;28;20136;-80
2023/09/29 03:57:41;;;;;;;13.00;7.05;;;14.80;99.90;;;;;;4998764;28;20053;-80
2023/09/29 04:00:13;;;;;;;11.60;6.60;;;14.80;99.90;;;;;;5001329;28;20107;-80
2023/09/29 04:02:41;;;;;;;12.35;6.22;;;14.80;99.90;;;;;;5010325;28;20064;-80
2023/09/29 04:05:09;;;;;;;13.05;7.28;;;14.70;99.90;;;;;;5007953;28;20073;-80
2023/09/29 04:07:40;;;;;;;14.00;6.75;;;14.70;99.90;;;;;;5010210;28;20049;-80
2023/09/29 04:10:12;;;;;;;13.23;7.00;;;14.70;99.90;;;;;;5003746;28;20143;-81
2023/09/29 04:12:42;;;;;;;11.82;6.75;;;14.60;99.90;;;;;;5000516;28;20049;-80
2023/09/29 04:15:09;;;;;;;14.23;7.00;;;14.60;99.90;;;;;;5006803;28;20140;-80
2023/09/29 04:17:38;;;;;;;15.15;8.27;;;14.50;99.90;;;;;;5022037;28;20056;-80
2023/09/29 04:20:07;;;;;;;13.50;7.30;;;14.60;99.90;;;;;;5025261;28;20064;-80
2023/09/29 04:22:35;;;;;;;12.55;6.78;;;14.60;99.90;;;;;;5026890;28;20057;-80
2023/09/29 04:25:03;;;;;;;16.52;6.97;;;14.60;99.90;;;;;;5022395;28;20738;-80
2023/09/29 04:27:30;;;;;;;13.05;6.97;;;14.60;99.90;;;;;;5026103;28;20136;-80
2023/09/29 04:29:58;;;;;;;11.95;7.35;;;14.50;99.90;;;;;;5023060;28;20111;-80
2023/09/29 04:32:25;;;;;;;16.40;7.18;;;14.50;99.90;;;;;;5024807;28;20055;-80
2023/09/29 04:34:52;;;;;;;13.40;7.35;;;14.50;99.90;;;;;;5004394;28;20060;-80
2023/09/29 04:37:19;;;;;;;13.68;7.10;;;14.50;99.90;;;;;;5006754;28;20045;-80
2023/09/29 04:39:46;;;;;;;12.20;6.57;;;14.50;99.90;;;;;;4997014;28;20045;-80
2023/09/29 04:42:14;;;;;;;13.68;7.13;;;14.60;99.90;;;;;;5006870;28;22523;-80
2023/09/29 04:44:41;;;;;;;13.80;7.15;;;14.60;99.90;;;;;;5003007;28;20045;-80
2023/09/29 04:47:08;;;;;;;14.40;7.07;;;14.50;99.90;;;;;;5042955;28;20051;-81
2023/09/29 04:49:35;;;;;;;13.10;7.38;;;14.60;99.90;;;;;;5021942;28;20079;-80
2023/09/29 04:52:03;;;;;;;13.98;7.78;;;14.60;99.90;;;;;;5028492;28;20045;-80
2023/09/29 04:54:30;;;;;;;13.90;6.70;;;14.50;99.90;;;;;;5021740;28;20041;-80
2023/09/29 04:56:57;;;;;;;15.60;8.30;;;14.60;99.90;;;;;;5022786;28;20127;-80
2023/09/29 04:59:25;;;;;;;15.13;8.20;;;14.50;99.90;;;;;;4995441;28;20065;-83
2023/09/29 05:01:53;;;;;;;13.48;7.38;;;14.50;99.90;;;;;;5011912;28;20049;-83
2023/09/29 05:04:20;;;;;;;17.48;8.73;;;14.50;99.90;;;;;;5014475;28;20446;-83
2023/09/29 05:06:47;;;;;;;13.98;7.70;;;14.60;99.90;;;;;;5005975;28;22881;-83
2023/09/29 05:09:15;;;;;;;15.05;8.13;;;14.60;99.90;;;;;;5027560;28;20726;-83
2023/09/29 05:11:42;;;;;;;13.70;8.00;;;14.60;99.90;;;;;;5026076;28;20385;-82
2023/09/29 05:14:10;;;;;;;14.63;7.55;;;14.60;99.90;;;;;;5002068;28;20049;-83
2023/09/29 05:16:37;;;;;;;14.57;8.35;;;14.70;99.90;;;;;;4998723;28;20190;-83
2023/09/29 05:19:04;;;;;;;15.90;8.60;;;14.70;99.90;;;;;;5024656;28;20061;-83
2023/09/29 05:21:32;;;;;;;15.18;8.05;;;14.80;99.90;;;;;;5001710;28;20051;-83
2023/09/29 05:23:59;;;;;;;15.77;8.23;;;14.80;99.90;;;;;;5011462;28;20053;-81
2023/09/29 05:26:27;;;;;;;19.02;8.85;;;14.80;99.90;;;;;;5002960;28;20046;-83
2023/09/29 05:28:55;;;;;;;17.38;8.55;;;14.80;99.90;;;;;;5041331;28;20168;-83
2023/09/29 05:31:22;;;;;;;16.77;8.52;;;14.80;99.90;;;;;;5021282;28;20045;-83
2023/09/29 05:33:53;;;;;;;17.55;9.48;;;14.80;99.90;;;;;;5024870;28;20042;-83
2023/09/29 05:36:21;;;;;;;18.48;8.98;;;14.90;99.90;;;;;;5026817;28;20192;-83
2023/09/29 05:38:49;;;;;;;14.63;8.95;;;14.90;99.90;;;;;;5013192;28;20081;-83
2023/09/29 05:41:17;;;;;;;13.68;8.02;;;15.00;99.90;;;;;;5023117;28;20061;-83
2023/09/29 05:43:44;;;;;;;14.85;8.25;;;15.00;99.90;;;;;;5000314;28;20053;-83
2023/09/29 05:46:11;;;;;;;18.60;9.85;;;15.10;99.90;;;;;;5000395;28;20056;-83
2023/09/29 05:48:39;;;;;;;19.58;9.32;;;15.10;99.90;;;;;;5004040;28;20061;-83
2023/09/29 05:51:06;;;;;;;20.35;9.40;;;15.20;99.90;;;;;;5022940;28;20041;-84
2023/09/29 05:53:33;;;;;;;17.83;9.40;;;15.20;99.90;;;;;;5022702;28;20164;-83
2023/09/29 05:56:06;;;;;;;16.15;8.40;;;15.30;99.90;;;;;;5007262;28;20050;-83
2023/09/29 05:58:33;;;;;;;18.38;8.93;;;15.30;99.90;;;;;;4995895;28;22579;-83
2023/09/29 06:01:12;;;;;;;16.02;8.35;;;15.40;99.90;;;;;;5015025;28;20054;-83
2023/09/29 06:03:40;;;;;;;13.88;8.25;;;15.50;99.90;;;;;;5003464;28;20120;-83
2023/09/29 06:06:09;;;;;;;15.02;8.50;;;15.50;99.90;;;;;;5000392;28;20053;-83
2023/09/29 06:08:37;;;;;;;15.32;8.75;;;15.60;99.90;;;;;;5009905;28;20054;-84
2023/09/29 06:11:24;;;;;;;19.88;8.73;;;15.60;99.90;;;;;;5008808;28;20050;-84
2023/09/29 06:13:51;;;;;;;14.90;8.82;;;15.80;99.90;;;;;;5002601;28;22508;-84
2023/09/29 06:16:18;;;;;;;19.30;9.50;;;15.80;99.90;;;;;;5003697;28;20080;-83
2023/09/29 06:18:46;;;;;;;18.25;8.75;;;15.90;99.90;;;;;;5010625;28;22473;-83
2023/09/29 06:21:14;;;;;;;14.23;8.35;;;16.00;99.90;;;;;;5040213;28;20049;-84
2023/09/29 06:23:41;;;;;;;12.07;7.70;;;16.00;99.90;;;;;;5040039;28;20136;-83
2023/09/29 06:26:08;;;;;;;13.27;7.75;;;16.20;99.90;;;;;;5041095;28;20127;-83
2023/09/29 06:28:38;;;;;;;12.85;7.45;;;16.20;99.90;;;;;;5006195;28;20100;-82
2023/09/29 06:31:06;;;;;;;14.95;7.32;;;16.30;99.90;;;;;;5022446;28;20405;-81
2023/09/29 06:33:33;;;;;;;12.00;6.90;;;16.40;99.90;;;;;;5021912;28;20136;-82
2023/09/29 06:36:01;;;;;;;12.88;6.55;;;16.40;99.90;;;;;;5007970;28;20064;-81
2023/09/29 06:38:29;;;;;;;11.55;5.97;;;16.50;99.90;;;;;;5025527;28;21128;-81
2023/09/29 06:40:58;;;;;;;12.15;5.72;;;16.70;99.90;;;;;;5001307;28;20073;-80
2023/09/29 06:43:26;;;;;;;10.52;6.63;;;16.70;99.90;;;;;;5041411;28;20103;-81
2023/09/29 06:45:54;;;;;;;12.30;6.35;;;16.90;99.90;;;;;;5041979;28;20041;-83
2023/09/29 06:48:28;;;;;;;8.82;5.85;;;17.00;99.90;;;;;;5004060;28;20077;-83
2023/09/29 06:50:59;;;;;;;12.52;7.22;;;17.10;99.90;;;;;;5007897;28;20041;-86
2023/09/29 06:53:29;;;;;;;10.70;5.43;;;17.20;99.90;;;;;;5039401;28;20042;-83
2023/09/29 06:55:58;;;;;;;8.57;5.40;;;17.20;99.90;;;;;;5007629;28;20581;-83
2023/09/29 06:58:26;;;;;;;11.07;5.43;;;17.40;99.90;;;;;;5008328;28;20049;-85
2023/09/29 07:00:56;;;;;;;9.98;5.90;;;17.40;99.90;;;;;;5020693;28;20125;-83
2023/09/29 07:03:30;;;;;;;9.70;5.40;;;17.50;99.90;;;;;;5003924;28;20057;-83
2023/09/29 07:06:02;;;;;;;8.70;5.30;;;17.60;99.90;;;;;;5022431;28;20403;-83
2023/09/29 07:08:32;;;;;;;13.95;6.13;;;17.50;99.90;;;;;;5010499;28;20049;-83
2023/09/29 07:11:00;;;;;;;10.68;5.32;;;17.90;99.90;;;;;;5003304;28;20053;-83
2023/09/29 07:13:27;;;;;;;7.22;5.03;;;18.00;99.90;;;;;;5004933;28;20083;-85
2023/09/29 07:15:55;;;;;;;11.70;5.90;;;18.10;99.90;;;;;;5009622;28;20057;-83
2023/09/29 07:18:22;;;;;;;8.07;4.85;;;18.20;99.70;;;;;;5006992;28;20058;-83
2023/09/29 07:20:52;;;;;;;10.85;5.30;;;18.30;99.10;;;;;;5009254;28;20144;-84
2023/09/29 07:23:21;;;;;;;10.18;5.00;;;18.50;99.50;;;;;;5044165;28;20064;-82
2023/09/29 07:25:52;;;;;;;7.22;5.07;;;18.60;98.80;;;;;;5043140;28;20064;-82
2023/09/29 07:28:20;;;;;;;7.50;4.85;;;18.70;99.10;;;;;;5028396;28;20048;-82
2023/09/29 07:30:48;;;;;;;10.57;5.03;;;18.80;98.40;;;;;;5011357;28;20230;-81
2023/09/29 07:33:15;;;;;;;12.32;5.13;;;18.80;97.70;;;;;;5026034;28;20159;-82
2023/09/29 07:35:46;;;;;;;10.30;4.80;;;18.80;96.60;;;;;;5023108;28;20052;-82
2023/09/29 07:38:14;;;;;;;9.00;5.30;;;18.90;97.20;;;;;;5046362;28;20063;-81
2023/09/29 07:40:41;;;;;;;9.30;4.93;;;19.10;97.00;;;;;;5038254;28;20045;-82
2023/09/29 07:43:08;;;;;;;10.77;5.63;;;19.10;96.70;;;;;;5042397;28;20230;-80
2023/09/29 07:45:35;;;;;;;9.30;5.35;;;19.20;96.50;;;;;;5037443;28;20634;-81
2023/09/29 07:48:03;;;;;;;9.75;5.80;;;19.20;95.90;;;;;;5036364;28;20188;-82
2023/09/29 07:50:30;;;;;;;13.23;5.63;;;19.30;95.70;;;;;;5042363;28;20068;-82
2023/09/29 07:52:57;;;;;;;11.13;5.35;;;19.40;95.50;;;;;;5022224;28;20049;-82
2023/09/29 07:55:24;;;;;;;9.15;5.13;;;19.40;94.90;;;;;;5027014;28;20057;-81
2023/09/29 07:57:53;;;;;;;7.78;5.43;;;19.50;95.40;;;;;;5042109;28;20041;-81
2023/09/29 08:00:20;;;;;;;8.10;5.25;;;19.50;94.90;;;;;;5015878;28;20073;-82
2023/09/29 08:02:47;;;;;;;10.65;5.70;;;19.60;94.90;;;;;;5021658;28;20048;-80
2023/09/29 08:05:15;;;;;;;11.38;5.32;;;19.70;94.90;;;;;;5023550;28;20069;-79
2023/09/29 08:07:43;;;;;;;9.48;5.10;;;19.80;94.60;;;;;;5013458;28;20049;-81
2023/09/29 08:10:12;;;;;;;13.75;5.70;;;19.90;94.20;;;;;;5040496;28;20135;-80
2023/09/29 08:12:40;;;;;;;12.13;5.32;;;19.90;93.70;;;;;;5011786;28;20148;-80
2023/09/29 08:15:10;;;;;;;12.65;5.40;;;19.90;94.10;;;;;;5012483;28;22491;-81
2023/09/29 08:17:38;;;;;;;10.38;5.47;;;20.00;93.90;;;;;;5014495;28;20045;-80
2023/09/29 08:20:06;;;;;;;9.32;5.68;;;20.00;93.30;;;;;;5045540;28;22578;-80
2023/09/29 08:22:33;;;;;;;15.98;6.68;;;20.00;93.20;;;;;;5022486;28;20068;-79
2023/09/29 08:25:10;;;;;;;14.18;6.85;;;20.10;93.50;;;;;;5026565;28;20052;-80
2023/09/29 08:27:38;;;;;;;10.02;5.45;;;20.20;93.10;;;;;;5025178;28;22194;-80
2023/09/29 08:30:10;;;;;;;10.25;5.78;;;20.20;92.80;;;;;;5013101;28;20148;-81
2023/09/29 08:32:39;;;;;;;10.27;5.68;;;20.30;92.60;;;;;;5007102;28;20073;-80
2023/09/29 08:35:07;;;;;;;12.80;5.78;;;20.30;92.00;;;;;;5010004;28;20048;-80
2023/09/29 08:37:34;;;;;;;9.07;4.97;;;20.30;92.00;;;;;;5004175;28;20052;-80
2023/09/29 08:40:01;;;;;;;10.18;5.85;;;20.40;92.10;;;;;;5001087;28;20056;-81
2023/09/29 08:42:39;;;;;;;9.68;5.57;;;20.50;91.80;;;;;;4999405;28;20045;-82
2023/09/29 08:45:11;;;;;;;9.68;6.10;;;20.60;91.60;;;;;;5025867;28;20044;-81
2023/09/29 08:47:40;;;;;;;;;;;20.60;91.20;;;;;;5019522;28;20061;-78
2023/09/29 08:50:09;;;;;;;8.45;5.30;;;20.70;91.20;;;;;;5026796;28;20508;-80
2023/09/29 08:52:36;;;;;;;9.23;5.75;;;20.80;90.70;;;;;;5001226;28;20500;-80
2023/09/29 08:55:04;;;;;;;11.30;5.22;;;20.90;90.30;;;;;;5040399;28;20056;-79
2023/09/29 08:57:32;;;;;;;8.60;4.90;;;20.90;90.20;;;;;;5027207;28;20050;-80
2023/09/29 09:00:00;;;;;;;8.07;4.78;;;21.00;90.20;;;;;;5007026;28;20188;-82
2023/09/29 09:02:27;;;;;;;8.77;4.55;;;21.10;90.20;;;;;;5006672;28;20045;-80
2023/09/29 09:04:56;;;;;;;8.70;5.43;;;21.30;89.20;;;;;;5023945;28;20046;-79
2023/09/29 09:07:24;;;;;;;8.32;5.60;;;21.30;88.80;;;;;;5022380;28;20054;-80
2023/09/29 09:09:53;;;;;;;11.00;5.07;;;21.30;87.60;;;;;;5020919;28;20056;-82
2023/09/29 09:12:34;;;;;;;11.25;4.90;;;21.20;88.40;;;;;;5023077;28;20078;-80
2023/09/29 09:15:03;;;;;;;8.73;5.45;;;21.40;89.60;;;;;;5015348;28;20062;-80
2023/09/29 09:17:34;;;;;;;9.48;5.20;;;21.40;87.90;;;;;;5014089;28;20052;-80
2023/09/29 09:20:02;;;;;;;9.13;4.85;;;21.50;88.30;;;;;;5026237;28;20057;-81
2023/09/29 09:22:38;;;;;;;8.18;5.25;;;21.50;88.50;;;;;;5006340;28;20591;-80
2023/09/29 09:25:14;;;;;;;9.40;5.15;;;21.60;88.40;;;;;;5021237;28;20067;-81
2023/09/29 09:27:43;;;;;;;14.93;5.43;;;21.60;86.20;;;;;;5024700;28;20038;-78
2023/09/29 09:30:24;;;;;;;10.80;5.65;;;21.60;86.30;;;;;;5021772;28;20041;-81
2023/09/29 09:32:52;;;;;;;10.00;4.45;;;21.60;85.20;;;;;;5022005;28;20045;-80
2023/09/29 09:35:27;;;;;;;11.18;5.70;;;21.60;85.80;;;;;;4994531;28;20527;-77
2023/09/29 09:37:56;;;;;;;12.48;5.22;;;21.70;86.00;;;;;;5005035;28;20136;-80
2023/09/29 09:40:25;;;;;;;9.25;5.28;;;21.80;85.80;;;;;;5002487;28;20041;-78
2023/09/29 09:42:53;;;;;;;13.52;5.55;;;21.90;86.70;;;;;;5022076;28;22394;-79
2023/09/29 09:45:43;;;;;;;9.82;5.43;;;21.90;85.70;;;;;;5028062;28;20133;-79
2023/09/29 09:48:15;;;;;;;10.60;5.28;;;22.00;85.00;;;;;;5012786;28;20967;-78
2023/09/29 09:50:44;;;;;;;10.27;5.93;;;22.00;84.50;;;;;;5024604;28;20048;-79
2023/09/29 09:53:13;;;;;;;8.60;5.05;;;21.90;84.80;;;;;;5023692;28;22669;-79
2023/09/29 09:56:00;;;;;;;9.40;5.03;;;22.00;85.20;;;;;;5039570;28;20049;-82
2023/09/29 09:58:28;;;;;;;10.32;5.28;;;22.10;85.50;;;;;;5001067;28;20081;-80
2023/09/29 10:00:55;;;;;;;12.05;5.00;;;22.20;82.30;;;;;;5007159;28;20419;-80
2023/09/29 10:03:26;;;;;;;9.10;4.82;;;22.30;82.10;;;;;;5001951;28;20503;-79
2023/09/29 10:05:55;;;;;;;8.48;5.13;;;22.30;83.70;;;;;;5024945;28;20052;-80
2023/09/29 10:08:25;;;;;;;9.52;4.45;;;22.50;83.50;;;;;;5023778;28;20566;-80
2023/09/29 10:10:52;;;;;;;9.63;4.85;;;22.60;83.90;;;;;;5001527;28;20132;-79
2023/09/29 10:13:19;;;;;;;11.27;5.43;;;22.60;82.40;;;;;;5040197;28;20073;-78
2023/09/29 10:16:02;;;;;;;10.90;5.20;;;22.50;82.90;;;;;;5025175;28;20063;-80
2023/09/29 10:18:30;;;;;;;9.48;4.70;;;22.50;82.20;;;;;;5000319;28;20055;-81
2023/09/29 10:21:07;;;;;;;7.05;3.88;;;22.70;82.20;;;;;;5012653;28;20140;-81
2023/09/29 10:23:45;;;;;;;9.32;4.82;;;22.80;80.90;;;;;;5024798;28;21086;-81
2023/09/29 10:26:13;;;;;;;10.32;5.55;;;22.60;79.40;;;;;;5025342;28;20049;-80
2023/09/29 10:28:41;;;;;;;60.88;6.63;;;22.90;80.90;;;;;;5012570;28;20052;-80
2023/09/29 10:31:13;;;;;;;9.07;5.45;;;23.00;80.70;;;;;;5023187;28;20120;-79
2023/09/29 10:33:54;;;;;;;7.65;4.18;;;22.80;78.10;;;;;;5007537;28;20484;-81
2023/09/29 10:36:28;;;;;;;8.02;4.82;;;22.80;79.00;;;;;;5002392;28;20048;-79
2023/09/29 10:38:57;;;;;;;13.20;4.35;;;22.80;77.30;;;;;;5030734;28;20049;-83
2023/09/29 10:41:28;;;;;;;7.32;4.55;;;22.90;78.90;;;;;;5023078;28;22549;-81
2023/09/29 10:44:06;;;;;;;13.30;6.07;;;23.00;78.50;;;;;;5002066;28;20059;-79
2023/09/29 10:46:33;;;;;;;9.52;4.70;;;23.10;79.40;;;;;;5009447;28;20049;-80
2023/09/29 10:49:00;;;;;;;10.52;4.30;;;23.20;80.10;;;;;;5009477;28;20144;-79
2023/09/29 10:51:33;;;;;;;8.90;4.80;;;23.20;79.90;;;;;;5027530;28;20042;-78
2023/09/29 10:54:02;;;;;;;8.23;4.57;;;23.10;79.80;;;;;;5006576;28;20065;-79
2023/09/29 10:56:30;;;;;;;8.10;4.82;;;23.20;78.00;;;;;;5027201;28;20053;-82
2023/09/29 10:58:58;;;;;;;8.13;4.13;;;23.10;77.80;;;;;;5005591;28;20083;-80
2023/09/29 11:01:32;;;;;;;14.32;4.93;;;23.30;79.20;;;;;;5040517;28;20057;-80
2023/09/29 11:04:01;;;;;;;9.80;4.57;;;23.40;78.00;;;;;;5008894;28;20058;-81
2023/09/29 11:06:29;;;;;;;6.75;3.97;;;23.40;77.30;;;;;;5017845;28;22417;-80
2023/09/29 11:08:58;;;;;;;7.60;4.60;;;23.40;77.80;;;;;;5015594;28;20126;-80
2023/09/29 11:11:32;;;;;;;11.63;4.45;;;23.50;78.00;;;;;;5028231;28;20440;-80
2023/09/29 11:13:59;;;;;;;7.20;4.13;;;23.50;77.70;;;;;;5008108;28;20400;-79
2023/09/29 11:16:28;;;;;;;6.22;3.83;;;23.40;76.00;;;;;;5009075;28;20041;-80
2023/09/29 11:19:05;;;;;;;8.02;4.10;;;23.40;76.30;;;;;;5027813;28;20041;-79
2023/09/29 11:21:34;;;;;;;9.40;4.28;;;23.50;77.10;;;;;;5042720;28;20136;-79
2023/09/29 11:24:10;;;;;;;6.35;4.13;;;23.50;75.00;;;;;;5022952;28;20108;-79
2023/09/29 11:26:42;;;;;;;6.53;3.92;;;23.50;72.80;;;;;;5025561;28;20065;-80
2023/09/29 11:29:29;;;;;;;8.15;3.92;;;23.70;74.80;;;;;;5028019;28;20101;-80
2023/09/29 11:31:57;;;;;;;6.28;4.05;;;23.60;74.40;;;;;;5025881;28;20566;-79
2023/09/29 11:34:29;;;;;;;9.27;4.05;;;23.70;73.80;;;;;;5028132;28;20061;-80
2023/09/29 11:36:56;;;;;;;7.23;3.70;;;23.80;72.00;;;;;;5002164;28;22527;-79
2023/09/29 11:39:23;;;;;;;5.65;3.35;;;23.70;70.20;;;;;;5007940;28;20380;-80
2023/09/29 11:41:51;;;;;;;4.75;3.55;;;23.70;68.80;;;;;;5041812;28;20064;-78
2023/09/29 11:44:18;;;;;;;6.22;3.95;;;23.80;70.00;;;;;;5025116;28;20381;-79
2023/09/29 11:46:46;;;;;;;6.25;3.50;;;23.80;69.60;;;;;;5027294;28;20408;-79
2023/09/29 11:49:13;;;;;;;6.30;3.70;;;23.80;70.60;;;;;;5027372;28;20078;-79
2023/09/29 11:51:40;;;;;;;8.32;4.10;;;23.80;70.60;;;;;;5021439;28;20044;-78
2023/09/29 11:54:07;;;;;;;10.45;3.75;;;23.80;69.60;;;;;;5029896;28;20038;-78
2023/09/29 11:56:34;;;;;;;8.05;3.38;;;23.70;71.40;;;;;;5017245;28;20049;-79
2023/09/29 11:59:01;;;;;;;5.72;3.47;;;23.80;69.60;;;;;;5014260;28;20081;-78
2023/09/29 12:01:29;;;;;;;6.10;3.15;;;23.80;69.40;;;;;;5027588;28;20053;-80
2023/09/29 12:03:57;;;;;;;8.57;3.45;;;23.90;69.60;;;;;;5005409;28;20072;-78
2023/09/29 12:06:26;;;;;;;6.70;3.28;;;24.00;68.90;;;;;;5021980;28;20046;-78
2023/09/29 12:08:54;;;;;;;12.10;4.05;;;23.90;69.60;;;;;;5025280;28;20373;-79
2023/09/29 12:11:21;;;;;;;6.65;3.05;;;23.90;68.70;;;;;;5019489;28;20513;-79
2023/09/29 12:13:48;;;;;;;8.32;3.50;;;23.90;70.20;;;;;;5002227;28;20041;-78
2023/09/29 12:16:16;;;;;;;5.22;3.55;;;23.90;67.70;;;;;;5007926;28;20053;-79
2023/09/29 12:18:43;;;;;;;7.60;4.45;;;23.90;70.20;;;;;;5026185;28;20046;-81
2023/09/29 12:21:11;;;;;;;12.63;4.53;;;24.00;69.30;;;;;;5041627;28;20516;-78
2023/09/29 12:23:40;;;;;;;7.57;4.07;;;23.90;67.70;;;;;;5024487;28;20409;-78
2023/09/29 12:26:08;;;;;;;6.05;4.03;;;23.90;68.00;;;;;;5023750;28;20048;-79
2023/09/29 12:28:36;;;;;;;5.38;3.30;;;23.90;68.00;;;;;;5040598;28;20052;-81
2023/09/29 12:31:14;;;;;;;7.20;3.92;;;24.00;69.80;;;;;;4982383;28;20050;-78
2023/09/29 12:33:41;;;;;;;7.40;3.60;;;24.00;68.70;;;;;;5027956;28;21024;-82
2023/09/29 12:36:09;;;;;;;5.40;3.20;;;24.00;69.90;;;;;;5003635;28;20046;-83
2023/09/29 12:38:36;;;;;;;7.95;3.70;;;24.00;69.00;;;;;;5020421;28;20054;-79
2023/09/29 12:41:04;;;;;;;6.82;3.65;;;24.00;66.50;;;;;;5028247;28;20041;-78
2023/09/29 12:43:32;;;;;;;5.05;3.22;;;23.90;67.50;;;;;;5005388;28;20041;-80
2023/09/29 12:45:59;;;;;;;5.65;3.22;;;23.90;67.50;;;;;;5024520;28;20057;-79
2023/09/29 12:48:27;;;;;;;6.35;3.70;;;23.90;68.20;;;;;;5007403;28;20049;-79
2023/09/29 12:50:54;;;;;;;5.10;3.30;;;24.00;67.10;;;;;;5024084;28;20047;-81